sensor_id;sensor_type;location;lat;lon;timestamp;pressure;altitude;pressure_sealevel;temperature;humidity
51031;BME280;37058;41.442;23.240;2023-05-02T00:02:04;100886.66;;;11.01;90.72
51031;BME280;37058;41.442;23.240;2023-05-02T00:04:30;100884.16;;;11.00;88.58
51031;BME280;37058;41.442;23.240;2023-05-02T00:06:56;100887.72;;;11.00;88.77
51031;BME280;37058;41.442;23.240;2023-05-02T00:09:22;100885.56;;;11.02;89.13
51031;BME280;37058;41.442;23.240;2023-05-02T00:11:48;100883.69;;;10.91;88.93
51031;BME280;37058;41.442;23.240;2023-05-02T00:14:14;100880.41;;;10.89;88.96
51031;BME280;37058;41.442;23.240;2023-05-02T00:16:39;100876.25;;;10.87;89.23
51031;BME280;37058;41.442;23.240;2023-05-02T00:19:05;100879.72;;;10.82;91.29
51031;BME280;37058;41.442;23.240;2023-05-02T00:21:31;100882.44;;;10.82;91.23
51031;BME280;37058;41.442;23.240;2023-05-02T00:23:57;100877.94;;;10.76;90.07
51031;BME280;37058;41.442;23.240;2023-05-02T00:26:24;100879.00;;;10.75;90.38
51031;BME280;37058;41.442;23.240;2023-05-02T00:28:50;100879.72;;;10.70;91.06
51031;BME280;37058;41.442;23.240;2023-05-02T00:31:15;100877.00;;;10.70;90.57
51031;BME280;37058;41.442;23.240;2023-05-02T00:33:41;100888.09;;;10.63;89.18
51031;BME280;37058;41.442;23.240;2023-05-02T00:36:15;100894.00;;;10.60;89.97
51031;BME280;37058;41.442;23.240;2023-05-02T00:38:41;100890.41;;;10.31;90.47
51031;BME280;37058;41.442;23.240;2023-05-02T00:41:07;100895.03;;;10.31;91.20
51031;BME280;37058;41.442;23.240;2023-05-02T00:43:33;100895.84;;;10.31;91.63
51031;BME280;37058;41.442;23.240;2023-05-02T00:45:59;100899.50;;;10.25;90.92
51031;BME280;37058;41.442;23.240;2023-05-02T00:48:25;100901.41;;;10.25;89.97
51031;BME280;37058;41.442;23.240;2023-05-02T00:50:51;100900.78;;;10.23;89.83
51031;BME280;37058;41.442;23.240;2023-05-02T00:53:17;100913.63;;;10.22;90.53
51031;BME280;37058;41.442;23.240;2023-05-02T00:55:43;100909.63;;;10.13;89.04
51031;BME280;37058;41.442;23.240;2023-05-02T00:58:14;100905.81;;;10.14;88.75
51031;BME280;37058;41.442;23.240;2023-05-02T01:11:55;100894.41;;;10.17;89.54
51031;BME280;37058;41.442;23.240;2023-05-02T01:14:32;100905.91;;;10.19;90.57
51031;BME280;37058;41.442;23.240;2023-05-02T01:17:03;100904.59;;;9.86;87.89
51031;BME280;37058;41.442;23.240;2023-05-02T01:19:58;100909.84;;;9.88;87.80
51031;BME280;37058;41.442;23.240;2023-05-02T01:22:27;100908.41;;;9.85;87.53
51031;BME280;37058;41.442;23.240;2023-05-02T01:28:35;100913.38;;;9.88;87.94
51031;BME280;37058;41.442;23.240;2023-05-02T01:31:04;100909.97;;;9.93;88.79
51031;BME280;37058;41.442;23.240;2023-05-02T01:33:31;100912.44;;;9.83;86.69
51031;BME280;37058;41.442;23.240;2023-05-02T01:35:58;100907.00;;;9.83;87.66
51031;BME280;37058;41.442;23.240;2023-05-02T01:38:26;100908.50;;;9.79;87.50
51031;BME280;37058;41.442;23.240;2023-05-02T01:40:53;100905.66;;;9.73;88.09
51031;BME280;37058;41.442;23.240;2023-05-02T01:43:20;100908.25;;;9.68;88.54
51031;BME280;37058;41.442;23.240;2023-05-02T01:45:48;100913.16;;;9.78;88.83
51031;BME280;37058;41.442;23.240;2023-05-02T01:48:17;100910.16;;;9.80;89.24
51031;BME280;37058;41.442;23.240;2023-05-02T01:50:44;100903.88;;;9.79;89.04
51031;BME280;37058;41.442;23.240;2023-05-02T01:53:10;100911.25;;;9.79;89.67
51031;BME280;37058;41.442;23.240;2023-05-02T01:55:42;100906.47;;;9.74;89.48
51031;BME280;37058;41.442;23.240;2023-05-02T01:58:10;100904.00;;;9.72;89.55
51031;BME280;37058;41.442;23.240;2023-05-02T02:00:36;100908.75;;;9.65;89.35
51031;BME280;37058;41.442;23.240;2023-05-02T02:03:05;100902.28;;;9.48;87.39
51031;BME280;37058;41.442;23.240;2023-05-02T02:05:34;100904.28;;;9.41;87.35
51031;BME280;37058;41.442;23.240;2023-05-02T02:08:01;100902.25;;;9.36;86.94
51031;BME280;37058;41.442;23.240;2023-05-02T02:10:30;100906.66;;;9.37;86.75
51031;BME280;37058;41.442;23.240;2023-05-02T02:13:06;100893.72;;;9.32;87.98
51031;BME280;37058;41.442;23.240;2023-05-02T02:15:38;100902.84;;;9.38;89.11
51031;BME280;37058;41.442;23.240;2023-05-02T02:18:13;100904.16;;;9.36;89.91
51031;BME280;37058;41.442;23.240;2023-05-02T02:20:43;100902.50;;;9.35;89.28
51031;BME280;37058;41.442;23.240;2023-05-02T02:23:10;100905.44;;;9.33;89.67
51031;BME280;37058;41.442;23.240;2023-05-02T02:25:37;100900.69;;;9.28;88.33
51031;BME280;37058;41.442;23.240;2023-05-02T02:28:03;100911.25;;;9.37;88.67
51031;BME280;37058;41.442;23.240;2023-05-02T02:30:29;100909.53;;;9.42;87.81
51031;BME280;37058;41.442;23.240;2023-05-02T02:32:55;100904.41;;;9.46;87.53
51031;BME280;37058;41.442;23.240;2023-05-02T02:35:21;100899.56;;;9.48;87.87
51031;BME280;37058;41.442;23.240;2023-05-02T02:38:00;100904.97;;;9.36;88.79
51031;BME280;37058;41.442;23.240;2023-05-02T02:40:40;100901.50;;;9.29;89.19
51031;BME280;37058;41.442;23.240;2023-05-02T02:43:23;100900.56;;;9.23;87.93
51031;BME280;37058;41.442;23.240;2023-05-02T02:49:34;100905.84;;;9.06;89.36
51031;BME280;37058;41.442;23.240;2023-05-02T02:52:10;100904.63;;;9.02;89.98
51031;BME280;37058;41.442;23.240;2023-05-02T02:55:30;100906.25;;;8.92;89.80
51031;BME280;37058;41.442;23.240;2023-05-02T03:00:33;100902.78;;;8.84;88.06
51031;BME280;37058;41.442;23.240;2023-05-02T03:03:00;100901.22;;;8.88;87.79
51031;BME280;37058;41.442;23.240;2023-05-02T03:05:26;100907.75;;;8.87;87.62
51031;BME280;37058;41.442;23.240;2023-05-02T03:07:54;100908.50;;;8.95;88.15
51031;BME280;37058;41.442;23.240;2023-05-02T03:10:21;100916.44;;;8.96;87.64
51031;BME280;37058;41.442;23.240;2023-05-02T03:12:47;100915.00;;;8.94;87.55
51031;BME280;37058;41.442;23.240;2023-05-02T03:15:32;100910.16;;;8.96;87.08
51031;BME280;37058;41.442;23.240;2023-05-02T03:18:10;100916.06;;;8.93;87.36
51031;BME280;37058;41.442;23.240;2023-05-02T03:20:36;100917.38;;;8.90;88.66
51031;BME280;37058;41.442;23.240;2023-05-02T03:23:02;100922.94;;;8.95;88.97
51031;BME280;37058;41.442;23.240;2023-05-02T03:25:28;100917.81;;;8.87;89.33
51031;BME280;37058;41.442;23.240;2023-05-02T03:27:56;100915.41;;;8.79;89.85
51031;BME280;37058;41.442;23.240;2023-05-02T03:30:22;100925.47;;;8.78;89.82
51031;BME280;37058;41.442;23.240;2023-05-02T03:32:48;100930.47;;;8.63;88.50
51031;BME280;37058;41.442;23.240;2023-05-02T03:35:14;100924.72;;;8.71;88.87
51031;BME280;37058;41.442;23.240;2023-05-02T03:37:41;100922.59;;;8.73;89.48
51031;BME280;37058;41.442;23.240;2023-05-02T03:40:07;100925.47;;;8.78;89.58
51031;BME280;37058;41.442;23.240;2023-05-02T03:42:36;100935.53;;;8.78;89.54
51031;BME280;37058;41.442;23.240;2023-05-02T03:45:09;100939.06;;;8.78;90.23
51031;BME280;37058;41.442;23.240;2023-05-02T03:47:35;100943.69;;;8.78;91.60
51031;BME280;37058;41.442;23.240;2023-05-02T03:50:01;100941.13;;;8.83;92.67
51031;BME280;37058;41.442;23.240;2023-05-02T03:52:28;100937.72;;;8.87;92.79
51031;BME280;37058;41.442;23.240;2023-05-02T03:54:53;100940.81;;;8.91;93.08
51031;BME280;37058;41.442;23.240;2023-05-02T03:57:19;100949.97;;;8.97;93.37
51031;BME280;37058;41.442;23.240;2023-05-02T03:59:46;100944.53;;;8.97;91.46
51031;BME280;37058;41.442;23.240;2023-05-02T04:02:12;100947.25;;;8.97;88.41
51031;BME280;37058;41.442;23.240;2023-05-02T04:04:38;100946.94;;;9.05;87.79
51031;BME280;37058;41.442;23.240;2023-05-02T04:07:04;100952.66;;;9.15;87.95
51031;BME280;37058;41.442;23.240;2023-05-02T04:09:33;100956.75;;;9.24;87.67
51031;BME280;37058;41.442;23.240;2023-05-02T04:11:59;100954.72;;;9.31;87.26
51031;BME280;37058;41.442;23.240;2023-05-02T04:14:25;100952.94;;;9.25;86.84
51031;BME280;37058;41.442;23.240;2023-05-02T04:16:51;100960.78;;;9.33;87.22
51031;BME280;37058;41.442;23.240;2023-05-02T04:19:17;100962.91;;;9.31;88.12
51031;BME280;37058;41.442;23.240;2023-05-02T04:21:44;100957.31;;;9.26;88.09
51031;BME280;37058;41.442;23.240;2023-05-02T04:24:10;100962.38;;;9.41;88.27
51031;BME280;37058;41.442;23.240;2023-05-02T04:26:36;100961.53;;;9.41;89.63
51031;BME280;37058;41.442;23.240;2023-05-02T04:29:03;100951.84;;;9.57;89.81
51031;BME280;37058;41.442;23.240;2023-05-02T04:31:30;100963.53;;;9.75;89.48
51031;BME280;37058;41.442;23.240;2023-05-02T04:33:57;100960.81;;;9.87;89.61
51031;BME280;37058;41.442;23.240;2023-05-02T04:36:24;100968.94;;;10.06;89.36
51031;BME280;37058;41.442;23.240;2023-05-02T04:38:50;100965.25;;;10.24;88.80
51031;BME280;37058;41.442;23.240;2023-05-02T04:41:17;100964.44;;;10.35;88.10
51031;BME280;37058;41.442;23.240;2023-05-02T04:43:43;100969.53;;;10.43;88.40
51031;BME280;37058;41.442;23.240;2023-05-02T04:46:09;100968.00;;;10.59;87.53
51031;BME280;37058;41.442;23.240;2023-05-02T04:48:35;100967.25;;;10.75;86.71
51031;BME280;37058;41.442;23.240;2023-05-02T04:51:01;100969.50;;;10.90;86.45
51031;BME280;37058;41.442;23.240;2023-05-02T04:53:27;100969.56;;;11.07;86.03
51031;BME280;37058;41.442;23.240;2023-05-02T04:55:53;100962.50;;;11.23;85.18
51031;BME280;37058;41.442;23.240;2023-05-02T04:58:19;100967.84;;;11.30;85.15
51031;BME280;37058;41.442;23.240;2023-05-02T05:00:45;100962.06;;;11.43;84.34
51031;BME280;37058;41.442;23.240;2023-05-02T05:03:11;100960.69;;;11.57;83.88
51031;BME280;37058;41.442;23.240;2023-05-02T05:05:37;100971.56;;;11.69;83.80
51031;BME280;37058;41.442;23.240;2023-05-02T05:08:03;100965.25;;;11.68;83.30
51031;BME280;37058;41.442;23.240;2023-05-02T05:10:29;100952.75;;;11.73;83.30
51031;BME280;37058;41.442;23.240;2023-05-02T05:12:55;100963.13;;;11.87;82.83
51031;BME280;37058;41.442;23.240;2023-05-02T05:15:20;100956.59;;;11.88;83.31
51031;BME280;37058;41.442;23.240;2023-05-02T05:17:48;100960.16;;;11.89;84.38
51031;BME280;37058;41.442;23.240;2023-05-02T05:20:14;100973.88;;;12.06;83.87
51031;BME280;37058;41.442;23.240;2023-05-02T05:22:41;100966.97;;;12.20;84.27
51031;BME280;37058;41.442;23.240;2023-05-02T05:25:08;100972.59;;;12.30;83.60
51031;BME280;37058;41.442;23.240;2023-05-02T05:27:35;100973.91;;;12.45;83.09
51031;BME280;37058;41.442;23.240;2023-05-02T05:30:01;100976.34;;;12.63;82.37
51031;BME280;37058;41.442;23.240;2023-05-02T05:32:28;100973.00;;;12.56;81.90
51031;BME280;37058;41.442;23.240;2023-05-02T05:34:54;100971.47;;;12.65;82.12
51031;BME280;37058;41.442;23.240;2023-05-02T05:37:21;100974.16;;;12.82;81.82
51031;BME280;37058;41.442;23.240;2023-05-02T05:39:47;100969.69;;;12.98;82.00
51031;BME280;37058;41.442;23.240;2023-05-02T05:42:13;100980.34;;;13.16;81.48
51031;BME280;37058;41.442;23.240;2023-05-02T05:44:39;100975.91;;;13.32;80.74
51031;BME280;37058;41.442;23.240;2023-05-02T05:47:05;100976.38;;;13.51;80.31
51031;BME280;37058;41.442;23.240;2023-05-02T05:49:31;100974.34;;;13.69;80.21
51031;BME280;37058;41.442;23.240;2023-05-02T05:51:58;100977.53;;;13.82;79.64
51031;BME280;37058;41.442;23.240;2023-05-02T05:54:23;100975.78;;;14.03;79.10
51031;BME280;37058;41.442;23.240;2023-05-02T05:56:49;100978.59;;;14.14;78.32
51031;BME280;37058;41.442;23.240;2023-05-02T05:59:15;100982.59;;;14.33;78.20
51031;BME280;37058;41.442;23.240;2023-05-02T06:01:41;100978.47;;;14.73;76.12
51031;BME280;37058;41.442;23.240;2023-05-02T06:04:07;100985.84;;;15.20;73.35
51031;BME280;37058;41.442;23.240;2023-05-02T06:06:33;100979.09;;;15.79;71.29
51031;BME280;37058;41.442;23.240;2023-05-02T06:09:00;100976.91;;;16.32;69.04
51031;BME280;37058;41.442;23.240;2023-05-02T06:11:26;100980.94;;;16.91;67.17
51031;BME280;37058;41.442;23.240;2023-05-02T06:13:53;100979.78;;;17.07;66.53
51031;BME280;37058;41.442;23.240;2023-05-02T06:16:19;100980.16;;;20.34;56.79
51031;BME280;37058;41.442;23.240;2023-05-02T06:18:50;100978.31;;;23.06;48.62
51031;BME280;37058;41.442;23.240;2023-05-02T06:21:17;100985.63;;;24.85;43.52
51031;BME280;37058;41.442;23.240;2023-05-02T06:23:43;100984.78;;;26.86;38.86
51031;BME280;37058;41.442;23.240;2023-05-02T06:26:10;100973.72;;;28.51;35.55
51031;BME280;37058;41.442;23.240;2023-05-02T06:28:36;100970.28;;;29.21;33.85
51031;BME280;37058;41.442;23.240;2023-05-02T06:31:04;100972.84;;;29.10;33.58
51031;BME280;37058;41.442;23.240;2023-05-02T06:33:31;100962.88;;;25.55;39.82
51031;BME280;37058;41.442;23.240;2023-05-02T06:35:58;100964.25;;;23.03;45.22
51031;BME280;37058;41.442;23.240;2023-05-02T06:38:24;100969.97;;;21.68;48.99
51031;BME280;37058;41.442;23.240;2023-05-02T06:40:51;100967.50;;;20.74;52.25
51031;BME280;37058;41.442;23.240;2023-05-02T06:43:17;100973.38;;;20.40;53.46
51031;BME280;37058;41.442;23.240;2023-05-02T06:45:43;100969.84;;;19.88;55.55
51031;BME280;37058;41.442;23.240;2023-05-02T06:48:10;100979.16;;;19.16;58.28
51031;BME280;37058;41.442;23.240;2023-05-02T06:50:36;100973.50;;;18.78;59.85
51031;BME280;37058;41.442;23.240;2023-05-02T06:53:03;100966.22;;;18.63;60.68
51031;BME280;37058;41.442;23.240;2023-05-02T06:55:30;100965.72;;;18.56;61.79
51031;BME280;37058;41.442;23.240;2023-05-02T06:57:56;100957.81;;;18.45;62.95
51031;BME280;37058;41.442;23.240;2023-05-02T07:00:22;100958.56;;;18.50;62.83
51031;BME280;37058;41.442;23.240;2023-05-02T07:02:48;100963.63;;;18.14;63.56
51031;BME280;37058;41.442;23.240;2023-05-02T07:05:15;100959.94;;;17.94;65.07
51031;BME280;37058;41.442;23.240;2023-05-02T07:07:42;100960.09;;;18.08;64.57
51031;BME280;37058;41.442;23.240;2023-05-02T07:10:09;100957.03;;;18.10;64.10
51031;BME280;37058;41.442;23.240;2023-05-02T07:12:35;100957.34;;;18.08;65.00
51031;BME280;37058;41.442;23.240;2023-05-02T07:15:01;100959.75;;;18.15;65.94
51031;BME280;37058;41.442;23.240;2023-05-02T07:17:27;100956.38;;;18.23;66.07
51031;BME280;37058;41.442;23.240;2023-05-02T07:19:53;100958.59;;;18.21;65.66
51031;BME280;37058;41.442;23.240;2023-05-02T07:22:20;100950.25;;;18.26;66.00
51031;BME280;37058;41.442;23.240;2023-05-02T07:24:46;100957.25;;;18.18;67.08
51031;BME280;37058;41.442;23.240;2023-05-02T07:27:12;100958.34;;;18.17;67.18
51031;BME280;37058;41.442;23.240;2023-05-02T07:29:38;100960.00;;;18.18;66.91
51031;BME280;37058;41.442;23.240;2023-05-02T07:32:05;100950.25;;;18.26;66.95
51031;BME280;37058;41.442;23.240;2023-05-02T07:34:31;100955.25;;;18.24;66.80
51031;BME280;37058;41.442;23.240;2023-05-02T07:36:57;100946.31;;;18.32;66.94
51031;BME280;37058;41.442;23.240;2023-05-02T07:39:24;100943.50;;;18.37;65.47
51031;BME280;37058;41.442;23.240;2023-05-02T07:41:53;100942.91;;;18.40;65.10
51031;BME280;37058;41.442;23.240;2023-05-02T07:44:20;100944.59;;;18.41;64.36
51031;BME280;37058;41.442;23.240;2023-05-02T07:46:46;100946.66;;;18.55;62.99
51031;BME280;37058;41.442;23.240;2023-05-02T07:49:13;100949.25;;;18.70;61.63
51031;BME280;37058;41.442;23.240;2023-05-02T07:51:39;100946.84;;;18.88;62.45
51031;BME280;37058;41.442;23.240;2023-05-02T07:54:18;100937.81;;;19.01;61.54
51031;BME280;37058;41.442;23.240;2023-05-02T07:56:45;100948.75;;;19.11;58.79
51031;BME280;37058;41.442;23.240;2023-05-02T07:59:12;100938.69;;;19.20;56.95
51031;BME280;37058;41.442;23.240;2023-05-02T08:01:39;100943.63;;;19.23;56.09
51031;BME280;37058;41.442;23.240;2023-05-02T08:04:10;100940.41;;;19.35;55.46
51031;BME280;37058;41.442;23.240;2023-05-02T08:06:36;100939.59;;;19.54;55.73
51031;BME280;37058;41.442;23.240;2023-05-02T08:09:02;100932.53;;;19.61;56.10
51031;BME280;37058;41.442;23.240;2023-05-02T08:11:28;100934.06;;;19.73;55.42
51031;BME280;37058;41.442;23.240;2023-05-02T08:13:54;100933.59;;;19.84;55.60
51031;BME280;37058;41.442;23.240;2023-05-02T08:16:20;100929.91;;;19.89;54.28
51031;BME280;37058;41.442;23.240;2023-05-02T08:18:47;100928.00;;;20.03;55.68
51031;BME280;37058;41.442;23.240;2023-05-02T08:21:13;100926.50;;;20.11;54.44
51031;BME280;37058;41.442;23.240;2023-05-02T08:23:40;100932.47;;;20.18;53.99
51031;BME280;37058;41.442;23.240;2023-05-02T08:26:07;100923.03;;;20.33;53.57
51031;BME280;37058;41.442;23.240;2023-05-02T08:28:32;100920.06;;;20.43;53.42
51031;BME280;37058;41.442;23.240;2023-05-02T08:30:58;100913.28;;;20.49;50.99
51031;BME280;37058;41.442;23.240;2023-05-02T08:33:24;100908.63;;;20.64;51.35
51031;BME280;37058;41.442;23.240;2023-05-02T08:35:51;100911.28;;;20.69;49.01
51031;BME280;37058;41.442;23.240;2023-05-02T08:38:17;100905.31;;;20.75;49.54
51031;BME280;37058;41.442;23.240;2023-05-02T08:40:43;100901.09;;;20.78;49.12
51031;BME280;37058;41.442;23.240;2023-05-02T08:43:11;100898.59;;;20.90;48.66
51031;BME280;37058;41.442;23.240;2023-05-02T08:45:43;100906.31;;;20.93;48.23
51031;BME280;37058;41.442;23.240;2023-05-02T08:48:11;100907.22;;;21.03;48.22
51031;BME280;37058;41.442;23.240;2023-05-02T08:50:40;100910.53;;;21.05;46.45
51031;BME280;37058;41.442;23.240;2023-05-02T08:53:08;100905.69;;;21.10;46.95
51031;BME280;37058;41.442;23.240;2023-05-02T08:55:39;100912.38;;;21.09;44.85
51031;BME280;37058;41.442;23.240;2023-05-02T08:58:07;100902.38;;;21.08;45.24
51031;BME280;37058;41.442;23.240;2023-05-02T09:00:39;100908.25;;;21.07;43.49
51031;BME280;37058;41.442;23.240;2023-05-02T09:03:46;100911.41;;;21.14;44.54
51031;BME280;37058;41.442;23.240;2023-05-02T09:06:16;100902.97;;;21.19;43.17
51031;BME280;37058;41.442;23.240;2023-05-02T09:08:45;100906.34;;;21.30;43.23
51031;BME280;37058;41.442;23.240;2023-05-02T09:11:13;100908.38;;;21.38;43.88
51031;BME280;37058;41.442;23.240;2023-05-02T09:13:45;100899.66;;;21.45;43.47
51031;BME280;37058;41.442;23.240;2023-05-02T09:16:19;100901.81;;;21.48;41.83
51031;BME280;37058;41.442;23.240;2023-05-02T09:18:56;100901.03;;;21.56;42.04
51031;BME280;37058;41.442;23.240;2023-05-02T09:21:37;100903.13;;;21.73;42.38
51031;BME280;37058;41.442;23.240;2023-05-02T09:24:16;100901.44;;;21.85;39.07
51031;BME280;37058;41.442;23.240;2023-05-02T09:27:11;100886.38;;;21.86;38.95
51031;BME280;37058;41.442;23.240;2023-05-02T09:29:37;100888.13;;;21.82;36.93
51031;BME280;37058;41.442;23.240;2023-05-02T09:32:05;100882.44;;;21.88;36.60
51031;BME280;37058;41.442;23.240;2023-05-02T09:34:32;100879.72;;;21.96;37.88
51031;BME280;37058;41.442;23.240;2023-05-02T09:36:58;100882.75;;;22.08;39.10
51031;BME280;37058;41.442;23.240;2023-05-02T09:39:26;100877.34;;;22.12;39.10
51031;BME280;37058;41.442;23.240;2023-05-02T09:41:57;100866.22;;;22.12;39.51
51031;BME280;37058;41.442;23.240;2023-05-02T09:44:25;100871.78;;;22.12;37.74
51031;BME280;37058;41.442;23.240;2023-05-02T09:46:53;100870.53;;;22.18;38.48
51031;BME280;37058;41.442;23.240;2023-05-02T09:49:42;100856.63;;;22.18;38.82
51031;BME280;37058;41.442;23.240;2023-05-02T09:52:13;100864.97;;;22.18;38.82
51031;BME280;37058;41.442;23.240;2023-05-02T09:54:40;100856.94;;;22.17;39.72
51031;BME280;37058;41.442;23.240;2023-05-02T09:57:06;100851.88;;;22.19;38.78
51031;BME280;37058;41.442;23.240;2023-05-02T09:59:32;100855.50;;;22.19;39.91
51031;BME280;37058;41.442;23.240;2023-05-02T10:02:02;100856.50;;;22.23;41.08
51031;BME280;37058;41.442;23.240;2023-05-02T10:04:30;100864.34;;;22.21;40.68
51031;BME280;37058;41.442;23.240;2023-05-02T10:06:56;100859.22;;;22.15;40.91
51031;BME280;37058;41.442;23.240;2023-05-02T10:09:25;100857.44;;;22.19;40.78
51031;BME280;37058;41.442;23.240;2023-05-02T10:11:55;100852.16;;;22.08;39.63
51031;BME280;37058;41.442;23.240;2023-05-02T10:14:23;100858.66;;;22.04;39.34
51031;BME280;37058;41.442;23.240;2023-05-02T10:17:09;100860.91;;;21.93;39.22
51031;BME280;37058;41.442;23.240;2023-05-02T10:20:06;100856.31;;;21.89;38.66
51031;BME280;37058;41.442;23.240;2023-05-02T10:22:35;100850.22;;;21.86;38.75
51031;BME280;37058;41.442;23.240;2023-05-02T10:25:02;100849.72;;;21.84;38.55
51031;BME280;37058;41.442;23.240;2023-05-02T10:27:29;100861.50;;;21.81;38.78
51031;BME280;37058;41.442;23.240;2023-05-02T10:29:59;100841.66;;;21.74;38.37
51031;BME280;37058;41.442;23.240;2023-05-02T10:32:28;100842.97;;;21.77;38.17
51031;BME280;37058;41.442;23.240;2023-05-02T10:34:56;100844.97;;;21.85;40.48
51031;BME280;37058;41.442;23.240;2023-05-02T10:37:26;100837.97;;;21.88;39.01
51031;BME280;37058;41.442;23.240;2023-05-02T10:39:54;100833.84;;;21.85;38.15
51031;BME280;37058;41.442;23.240;2023-05-02T10:42:21;100830.03;;;21.72;38.25
51031;BME280;37058;41.442;23.240;2023-05-02T10:44:47;100816.97;;;21.73;37.91
51031;BME280;37058;41.442;23.240;2023-05-02T10:47:18;100820.22;;;21.75;38.65
51031;BME280;37058;41.442;23.240;2023-05-02T10:50:12;100818.03;;;21.85;38.89
51031;BME280;37058;41.442;23.240;2023-05-02T10:52:38;100809.56;;;21.99;38.95
51031;BME280;37058;41.442;23.240;2023-05-02T10:55:22;100816.66;;;22.14;38.85
51031;BME280;37058;41.442;23.240;2023-05-02T11:00:25;100806.75;;;22.31;37.26
51031;BME280;37058;41.442;23.240;2023-05-02T11:02:52;100798.75;;;22.29;36.31
51031;BME280;37058;41.442;23.240;2023-05-02T11:05:18;100791.25;;;22.38;36.50
51031;BME280;37058;41.442;23.240;2023-05-02T11:07:44;100793.56;;;22.36;37.19
51031;BME280;37058;41.442;23.240;2023-05-02T11:12:57;100788.28;;;22.35;37.56
51031;BME280;37058;41.442;23.240;2023-05-02T11:18:10;100782.38;;;22.27;36.30
51031;BME280;37058;41.442;23.240;2023-05-02T11:20:44;100779.28;;;22.29;37.32
51031;BME280;37058;41.442;23.240;2023-05-02T11:25:55;100775.34;;;22.21;34.60
51031;BME280;37058;41.442;23.240;2023-05-02T11:31:08;100761.97;;;22.01;34.16
51031;BME280;37058;41.442;23.240;2023-05-02T11:33:35;100765.41;;;21.98;33.62
51031;BME280;37058;41.442;23.240;2023-05-02T11:36:02;100778.16;;;21.99;35.08
51031;BME280;37058;41.442;23.240;2023-05-02T11:38:36;100763.09;;;21.91;34.04
51031;BME280;37058;41.442;23.240;2023-05-02T11:41:02;100767.97;;;21.85;33.74
51031;BME280;37058;41.442;23.240;2023-05-02T11:43:29;100758.47;;;21.86;34.04
51031;BME280;37058;41.442;23.240;2023-05-02T11:45:58;100746.09;;;21.93;34.65
51031;BME280;37058;41.442;23.240;2023-05-02T11:48:25;100755.56;;;21.92;32.91
51031;BME280;37058;41.442;23.240;2023-05-02T11:50:59;100740.47;;;21.84;32.77
51031;BME280;37058;41.442;23.240;2023-05-02T11:53:28;100746.19;;;21.79;32.64
51031;BME280;37058;41.442;23.240;2023-05-02T11:56:03;100736.03;;;21.74;32.41
51031;BME280;37058;41.442;23.240;2023-05-02T11:58:30;100739.97;;;21.82;33.58
51031;BME280;37058;41.442;23.240;2023-05-02T12:01:14;100739.31;;;21.85;33.20
51031;BME280;37058;41.442;23.240;2023-05-02T12:03:41;100750.81;;;21.92;32.30
51031;BME280;37058;41.442;23.240;2023-05-02T12:06:15;100733.69;;;22.07;32.53
51031;BME280;37058;41.442;23.240;2023-05-02T12:08:44;100745.53;;;22.22;33.94
51031;BME280;37058;41.442;23.240;2023-05-02T12:11:13;100730.84;;;22.30;31.80
51031;BME280;37058;41.442;23.240;2023-05-02T12:13:48;100735.44;;;22.35;31.07
51031;BME280;37058;41.442;23.240;2023-05-02T12:16:15;100727.59;;;22.37;30.37
51031;BME280;37058;41.442;23.240;2023-05-02T12:18:42;100725.66;;;22.46;31.03
51031;BME280;37058;41.442;23.240;2023-05-02T12:21:08;100719.25;;;22.54;32.30
51031;BME280;37058;41.442;23.240;2023-05-02T12:23:34;100703.88;;;22.65;31.82
51031;BME280;37058;41.442;23.240;2023-05-02T12:26:18;100708.78;;;22.77;32.28
51031;BME280;37058;41.442;23.240;2023-05-02T12:28:52;100709.59;;;22.78;29.97
51031;BME280;37058;41.442;23.240;2023-05-02T12:31:23;100703.22;;;22.77;30.20
51031;BME280;37058;41.442;23.240;2023-05-02T12:33:49;100704.53;;;22.80;29.81
51031;BME280;37058;41.442;23.240;2023-05-02T12:36:18;100696.19;;;22.80;29.69
51031;BME280;37058;41.442;23.240;2023-05-02T12:38:55;100695.69;;;22.78;29.96
51031;BME280;37058;41.442;23.240;2023-05-02T12:41:38;100693.88;;;22.82;32.17
51031;BME280;37058;41.442;23.240;2023-05-02T12:44:10;100685.88;;;22.71;29.82
51031;BME280;37058;41.442;23.240;2023-05-02T12:46:38;100681.28;;;22.67;29.60
51031;BME280;37058;41.442;23.240;2023-05-02T12:49:22;100688.13;;;22.61;30.54
51031;BME280;37058;41.442;23.240;2023-05-02T12:51:53;100684.38;;;22.57;30.81
51031;BME280;37058;41.442;23.240;2023-05-02T12:54:23;100679.94;;;22.56;30.50
51031;BME280;37058;41.442;23.240;2023-05-02T12:56:50;100683.75;;;22.51;30.83
51031;BME280;37058;41.442;23.240;2023-05-02T12:59:30;100678.50;;;22.41;31.04
51031;BME280;37058;41.442;23.240;2023-05-02T13:01:58;100679.13;;;22.38;31.03
51031;BME280;37058;41.442;23.240;2023-05-02T13:04:39;100675.03;;;22.35;30.73
51031;BME280;37058;41.442;23.240;2023-05-02T13:07:07;100679.09;;;22.20;30.68
51031;BME280;37058;41.442;23.240;2023-05-02T13:09:33;100679.88;;;22.12;31.23
51031;BME280;37058;41.442;23.240;2023-05-02T13:12:00;100661.38;;;22.07;30.62
51031;BME280;37058;41.442;23.240;2023-05-02T13:14:28;100667.28;;;22.06;29.56
51031;BME280;37058;41.442;23.240;2023-05-02T13:16:54;100663.03;;;22.08;30.15
51031;BME280;37058;41.442;23.240;2023-05-02T13:19:21;100667.28;;;22.06;30.90
51031;BME280;37058;41.442;23.240;2023-05-02T13:21:48;100651.88;;;22.00;30.72
51031;BME280;37058;41.442;23.240;2023-05-02T13:24:14;100650.91;;;21.96;30.69
51031;BME280;37058;41.442;23.240;2023-05-02T13:26:42;100646.81;;;22.02;31.07